Main page
METAR-TAF:

METAR-TAF

Airports :

McCarran International Airport

Las Vegas, Nevada, United States

latitude: 36-04-44N, longitude: 115-09-19W, elevation: 663 m

Current weather observation

The report was made 54 minutes ago, at 10:56 UTC
Calm wind
Temperature 32°C
Humidity 34%
Pressure 1015 hPa
Visibility: 16.1 km
Few clouds at a height of 25000 ft

METAR: KLAS 231056Z 00000KT 10SM FEW250 32/14 A2997 RMK AO2 SLP116 T03170139 $

Time: 04:50 (11:50 UTC)

Forecast

The report was made 15 minutes ago, at 11:35 UTC
Forecast valid from 23 at 12 UTC to 24 at 18 UTC
Wind 6 kt from the South
Visibility: 10 km
Clear sky
From 23 at 1500 UTC
Wind 5 kt from variable directions
Visibility: 10 km
Clear sky
From 23 at 1800 UTC
Wind 7 kt from the East
Visibility: 10 km
Few clouds at a height of 10000 ft
From 24 at 0600 UTC
Wind 7 kt from the Southwest
Visibility: 10 km
Scattered clouds at a height of 25000 ft

TAF: KLAS 231135Z 2312/2418 19006KT P6SM SKC FM231500 VRB05KT P6SM SKC FM231800 10007KT P6SM FEW100 FM240600 23007KT P6SM SCT250

Weather observations and forecasts of more than 4000 airports (METAR and TAF reports).

The available stations are represented by yellow and red dots on the map.

Hover mouse over dot to see the name of the station.

Then click to see weather observations and forecasts.

To change the map : click on the green buttons with a black cross to zoom in, on the green button with a dash to zoom out, or on the green arrows for adjacent maps.


METAR-TAF: